Time;durP1;ratioP1;P1;durP2;ratioP2;P2;SDS_P1;SDS_P2;PMS_P1;PMS_P2;Temp;Humidity;BMP_temperature;BMP_pressure;BME280_temperature;BME280_humidity;BME280_pressure;Samples;Min_cycle;Max_cycle;Signal;HPM_P1;HPM_P2
2023/03/01 00:01:21;;;;;;;10.23;9.07;;;;;;;-2.02;80.65;103039.22;5038145;28;20108;-78
2023/03/01 00:03:46;;;;;;;11.02;9.30;;;;;;;-2.01;80.53;103045.22;5048921;28;20037;-74
2023/03/01 00:06:12;;;;;;;10.93;9.63;;;;;;;-2.01;80.50;103051.25;5048782;28;20081;-75
2023/03/01 00:08:38;;;;;;;11.50;9.15;;;;;;;-1.98;81.16;103046.16;5048511;28;20024;-75
2023/03/01 00:11:08;;;;;;;13.48;10.10;;;;;;;-1.92;80.92;103048.81;5046703;28;20388;-75
2023/03/01 00:13:34;;;;;;;10.40;9.25;;;;;;;-1.94;80.51;103047.94;5048496;28;20021;-76
2023/03/01 00:16:04;;;;;;;8.15;4.55;;;;;;;-1.86;80.11;103052.31;5047300;28;20021;-76
2023/03/01 00:18:30;;;;;;;8.45;5.07;;;;;;;-1.83;79.69;103044.63;5046877;28;20036;-76
2023/03/01 00:20:55;;;;;;;8.73;4.80;;;;;;;-1.81;79.76;103045.50;5046813;28;20017;-76
2023/03/01 00:23:21;;;;;;;12.18;9.32;;;;;;;-1.78;79.78;103042.97;5048199;28;20021;-76
2023/03/01 00:25:47;;;;;;;11.77;4.97;;;;;;;-1.73;79.27;103039.59;5045835;28;20855;-76
2023/03/01 00:28:12;;;;;;;12.90;4.85;;;;;;;-1.69;78.96;103032.75;5039274;28;20048;-75
2023/03/01 00:30:38;;;;;;;10.77;9.18;;;;;;;-1.73;79.15;103030.97;5044642;28;20068;-76
2023/03/01 00:33:03;;;;;;;9.73;5.03;;;;;;;-1.66;79.32;103037.94;5047378;28;20428;-76
2023/03/01 00:35:28;;;;;;;10.38;9.23;;;;;;;-1.74;79.61;103034.41;5049528;28;20619;-78
2023/03/01 00:37:57;;;;;;;12.05;10.35;;;;;;;-1.77;79.75;103034.38;5048605;28;20021;-76
2023/03/01 00:40:28;;;;;;;10.23;9.23;;;;;;;-1.79;80.09;103036.06;5048168;28;20024;-76
2023/03/01 00:42:53;;;;;;;11.50;10.30;;;;;;;-1.81;80.37;103037.75;5062309;28;20033;-76
2023/03/01 00:45:18;;;;;;;10.93;4.90;;;;;;;-1.74;79.68;103039.56;5068866;28;20043;-76
2023/03/01 00:47:44;;;;;;;11.32;10.07;;;;;;;-1.87;80.44;103037.69;5049086;28;20079;-76
2023/03/01 00:50:11;;;;;;;9.05;5.10;;;;;;;-1.81;80.25;103042.94;5043128;28;20447;-76
2023/03/01 00:52:36;;;;;;;12.32;9.60;;;;;;;-1.86;80.58;103040.28;5027319;28;20057;-76
2023/03/01 00:55:02;;;;;;;11.38;10.15;;;;;;;-1.86;80.86;103034.25;5028499;28;20167;-76
2023/03/01 00:57:27;;;;;;;11.38;9.90;;;;;;;-1.87;80.79;103027.38;5026708;28;20044;-76
2023/03/01 00:59:53;;;;;;;10.07;5.20;;;;;;;-1.81;79.99;103030.88;5028705;28;20685;-76
2023/03/01 01:02:19;;;;;;;11.95;10.68;;;;;;;-1.92;80.90;103025.59;5028520;28;20036;-76
2023/03/01 01:04:45;;;;;;;11.05;9.85;;;;;;;-1.98;81.31;103020.38;5044925;28;20025;-75
2023/03/01 01:07:10;;;;;;;13.45;10.63;;;;;;;-2.04;81.13;103016.81;5044062;28;20498;-75
2023/03/01 01:09:36;;;;;;;11.50;10.27;;;;;;;-2.09;81.43;103011.59;5046740;28;20095;-75
2023/03/01 01:12:02;;;;;;;12.02;10.40;;;;;;;-2.16;81.68;103009.81;5051255;28;20021;-75
2023/03/01 01:14:27;;;;;;;12.15;10.90;;;;;;;-2.13;82.11;103014.13;5052279;28;20104;-78
2023/03/01 01:16:53;;;;;;;13.82;10.82;;;;;;;-2.18;82.42;103015.78;5050176;28;20082;-75
2023/03/01 01:19:19;;;;;;;11.80;10.57;;;;;;;-2.19;82.33;103012.34;5049779;28;20025;-75
2023/03/01 01:21:44;;;;;;;11.90;10.80;;;;;;;-2.19;83.01;103011.47;5051699;28;20396;-75
2023/03/01 01:24:11;;;;;;;12.93;11.55;;;;;;;-2.23;82.66;103005.41;5052096;28;20059;-76
2023/03/01 01:26:36;;;;;;;11.65;10.52;;;;;;;-2.30;82.62;103006.19;5051621;28;20183;-76
2023/03/01 01:29:03;;;;;;;11.95;5.63;;;;;;;-2.18;82.02;103001.19;5064177;28;20112;-76
2023/03/01 01:31:29;;;;;;;9.60;5.20;;;;;;;-2.20;81.66;102989.97;5030863;28;20079;-76
2023/03/01 01:33:56;;;;;;;13.02;11.63;;;;;;;-2.34;83.05;102988.94;5060977;28;20025;-76
2023/03/01 01:36:22;;;;;;;12.65;10.93;;;;;;;-2.38;83.19;102979.44;5059915;28;20029;-76
2023/03/01 01:38:48;;;;;;;11.80;4.85;;;;;;;-2.27;82.56;102981.31;5049068;28;20035;-76
2023/03/01 01:41:14;;;;;;;12.35;11.00;;;;;;;-2.38;83.37;102971.69;5050367;28;20033;-76
2023/03/01 01:43:45;;;;;;;18.50;11.27;;;;;;;-2.43;83.80;102968.16;5054216;28;20440;-76
2023/03/01 01:46:32;;;;;;;12.10;10.90;;;;;;;-2.40;83.80;102968.22;5049762;28;20033;-76
2023/03/01 01:49:01;;;;;;;14.25;10.85;;;;;;;-2.45;83.80;102969.84;5049965;28;20533;-76
2023/03/01 01:51:38;;;;;;;14.48;11.43;;;;;;;-2.47;83.75;102963.81;5049532;28;20036;-79
2023/03/01 01:54:08;;;;;;;11.43;10.23;;;;;;;-2.55;83.94;102969.72;5042783;28;20060;-76
2023/03/01 01:56:36;;;;;;;11.68;5.60;;;;;;;-2.44;83.19;102967.31;5047408;28;20033;-76
2023/03/01 01:59:01;;;;;;;12.75;10.60;;;;;;;-2.57;83.87;102963.69;5047793;28;20029;-76
2023/03/01 02:01:27;;;;;;;10.13;4.93;;;;;;;-2.49;83.00;102962.94;5051429;28;20051;-76
2023/03/01 02:03:52;;;;;;;11.98;10.65;;;;;;;-2.62;84.30;102957.63;5066557;28;20437;-76
2023/03/01 02:06:28;;;;;;;15.55;5.45;;;;;;;-2.53;84.06;102960.31;5050049;28;20415;-76
2023/03/01 02:08:57;;;;;;;11.77;10.65;;;;;;;-2.68;84.66;102959.25;5049371;28;20059;-76
2023/03/01 02:11:23;;;;;;;9.40;4.95;;;;;;;-2.57;83.78;102948.22;5049636;28;20071;-76
2023/03/01 02:13:49;;;;;;;12.35;10.48;;;;;;;-2.72;84.18;102948.03;5047377;28;20060;-76
2023/03/01 02:16:16;;;;;;;13.23;10.23;;;;;;;-2.77;84.54;102941.06;5051230;28;20029;-76
2023/03/01 02:18:42;;;;;;;9.77;5.57;;;;;;;-2.66;83.96;102942.97;5049753;28;20388;-78
2023/03/01 02:21:21;;;;;;;19.02;10.90;;;;;;;-2.78;85.15;102949.66;5049050;28;20021;-76
2023/03/01 02:23:46;;;;;;;12.25;10.95;;;;;;;-2.84;84.99;102937.53;5049411;28;20155;-76
2023/03/01 02:26:38;;;;;;;12.25;10.82;;;;;;;-2.84;85.59;102935.81;5049643;28;20123;-76
2023/03/01 02:29:05;;;;;;;10.25;5.00;;;;;;;-2.75;84.20;102932.53;5040855;28;20093;-76
2023/03/01 02:31:42;;;;;;;12.10;10.80;;;;;;;-2.87;85.38;102929.75;5038790;28;20103;-76
2023/03/01 02:34:22;;;;;;;12.25;10.73;;;;;;;-2.84;86.25;102940.09;5067486;28;20028;-76
2023/03/01 02:36:53;;;;;;;9.38;5.47;;;;;;;-2.76;85.41;102942.81;5059893;28;20025;-76
2023/03/01 02:39:25;;;;;;;12.20;10.73;;;;;;;-2.81;85.96;102945.28;5050220;28;20017;-79
2023/03/01 02:41:53;;;;;;;11.80;10.60;;;;;;;-2.79;85.82;102938.47;5056589;28;20074;-76
2023/03/01 02:44:19;;;;;;;15.18;10.95;;;;;;;-2.75;85.98;102937.69;5066497;28;20081;-76
2023/03/01 02:46:48;;;;;;;11.35;5.18;;;;;;;-2.67;85.38;102937.78;5044754;28;20025;-76
2023/03/01 02:49:27;;;;;;;8.18;4.50;;;;;;;-2.62;84.77;102941.28;5041078;28;20021;-76
2023/03/01 02:52:30;;;;;;;11.30;10.10;;;;;;;-2.59;85.67;102946.47;5050070;28;20119;-76
2023/03/01 02:55:12;;;;;;;13.13;10.10;;;;;;;-2.61;85.68;102946.47;5048822;28;20029;-79
2023/03/01 02:57:40;;;;;;;21.30;9.93;;;;;;;-2.58;85.63;102948.22;5050109;28;20465;-76
2023/03/01 03:00:19;;;;;;;8.85;5.07;;;;;;;-2.52;84.93;102949.16;5065305;28;20104;-76
2023/03/01 03:02:49;;;;;;;11.55;10.35;;;;;;;-2.62;85.67;102941.28;5049902;28;20111;-76
2023/03/01 03:05:26;;;;;;;8.30;4.97;;;;;;;-2.51;84.93;102939.72;5048467;28;20055;-76
2023/03/01 03:07:52;;;;;;;10.60;5.07;;;;;;;-2.52;84.45;102936.28;5030145;28;20029;-76
2023/03/01 03:10:32;;;;;;;8.60;4.63;;;;;;;-2.52;84.23;102928.53;5029346;28;20049;-76
2023/03/01 03:13:00;;;;;;;6.68;4.07;;;;;;;-2.53;84.22;102929.41;5030482;28;20363;-76
2023/03/01 03:15:26;;;;;;;14.32;9.98;;;;;;;-2.70;85.47;102936.03;5028799;28;20378;-76
2023/03/01 03:17:53;;;;;;;12.70;10.00;;;;;;;-2.75;85.68;102942.84;5033273;28;20033;-75
2023/03/01 03:20:21;;;;;;;8.63;5.43;;;;;;;-2.63;85.14;102940.41;5040935;28;20044;-76
2023/03/01 03:22:49;;;;;;;10.75;9.65;;;;;;;-2.75;86.20;102934.25;5030366;28;20021;-76
2023/03/01 03:25:15;;;;;;;12.50;9.93;;;;;;;-2.72;85.95;102932.56;5040126;28;20025;-76
2023/03/01 03:27:42;;;;;;;11.57;4.85;;;;;;;-2.64;85.44;102941.28;5049835;28;20120;-76
2023/03/01 03:30:09;;;;;;;12.90;10.70;;;;;;;-2.68;85.48;102941.19;5049495;28;20029;-75
2023/03/01 03:32:37;;;;;;;11.18;5.00;;;;;;;-2.61;85.17;102933.59;5052752;28;20415;-76
2023/03/01 03:35:09;;;;;;;12.85;4.55;;;;;;;-2.60;85.31;102935.31;5069215;28;20028;-76
2023/03/01 03:40:25;;;;;;;9.02;4.80;;;;;;;-2.55;84.73;102938.81;5047798;28;20056;-75
2023/03/01 03:42:51;;;;;;;13.13;9.73;;;;;;;-2.63;85.31;102924.97;5050540;28;20025;-76
2023/03/01 03:45:17;;;;;;;11.95;10.10;;;;;;;-2.63;85.94;102931.81;5045875;28;20025;-76
2023/03/01 03:47:43;;;;;;;10.68;9.48;;;;;;;-2.64;85.59;102927.53;5047018;28;20029;-76
2023/03/01 03:50:14;;;;;;;12.15;9.75;;;;;;;-2.73;86.24;102923.13;5048043;28;20401;-76
2023/03/01 03:52:40;;;;;;;7.55;4.28;;;;;;;-2.63;85.52;102932.69;5048943;28;20025;-76
2023/03/01 03:55:11;;;;;;;6.97;4.30;;;;;;;-2.60;85.90;102934.44;5047711;28;20401;-76
2023/03/01 03:57:37;;;;;;;10.48;9.30;;;;;;;-2.60;85.70;102930.16;5047995;28;20028;-75
2023/03/01 04:00:05;;;;;;;10.65;9.10;;;;;;;-2.62;85.45;102929.28;5046105;28;20020;-76
2023/03/01 04:02:31;;;;;;;14.80;9.57;;;;;;;-2.59;85.67;102931.88;5031253;28;20549;-75
2023/03/01 04:04:56;;;;;;;10.60;8.63;;;;;;;-2.57;85.56;102917.31;5050013;28;20105;-76
2023/03/01 04:07:22;;;;;;;11.32;4.70;;;;;;;-2.51;85.20;102908.78;5046698;28;20024;-76
2023/03/01 04:09:47;;;;;;;7.90;4.43;;;;;;;-2.49;85.14;102906.22;5048610;28;20135;-76
2023/03/01 04:12:12;;;;;;;10.30;4.25;;;;;;;-2.48;84.78;102907.97;5047759;28;20025;-75
2023/03/01 04:14:38;;;;;;;9.40;8.15;;;;;;;-2.54;85.05;102901.88;5047847;28;20071;-75
2023/03/01 04:17:05;;;;;;;9.98;7.82;;;;;;;-2.53;85.45;102895.88;5045459;28;20031;-76
2023/03/01 04:19:35;;;;;;;6.25;3.92;;;;;;;-2.47;84.97;102907.13;5042113;28;20032;-76
2023/03/01 04:22:09;;;;;;;8.55;4.32;;;;;;;-2.46;84.85;102901.13;5049216;28;20020;-75
2023/03/01 04:24:35;;;;;;;9.32;8.38;;;;;;;-2.55;85.33;102896.72;5049487;28;20032;-75
2023/03/01 04:27:00;;;;;;;9.63;8.40;;;;;;;-2.56;85.45;102901.00;5047900;28;20021;-76
2023/03/01 04:29:25;;;;;;;10.57;8.20;;;;;;;-2.54;85.24;102899.31;5048506;28;20434;-76
2023/03/01 04:31:51;;;;;;;10.25;8.55;;;;;;;-2.55;85.54;102897.59;5047369;28;20543;-76
2023/03/01 04:34:16;;;;;;;8.52;4.20;;;;;;;-2.52;84.99;102892.47;5041680;28;20043;-75
2023/03/01 04:36:41;;;;;;;8.55;4.30;;;;;;;-2.52;85.35;102901.91;5029005;28;20128;-76
2023/03/01 04:39:11;;;;;;;7.80;4.10;;;;;;;-2.51;85.08;102895.91;5046033;28;20056;-76
2023/03/01 04:41:38;;;;;;;6.35;3.97;;;;;;;-2.52;84.98;102891.59;5047627;28;20082;-76
2023/03/01 04:44:05;;;;;;;7.93;3.85;;;;;;;-2.53;84.88;102895.03;5051539;28;20024;-76
2023/03/01 04:46:30;;;;;;;7.78;4.05;;;;;;;-2.55;84.69;102886.41;5048076;28;20033;-76
2023/03/01 04:48:55;;;;;;;9.80;8.57;;;;;;;-2.65;85.58;102890.59;5067287;28;20025;-76
2023/03/01 04:51:21;;;;;;;9.88;4.18;;;;;;;-2.60;84.95;102878.63;5043069;28;20437;-76
2023/03/01 04:53:46;;;;;;;7.85;4.20;;;;;;;-2.60;84.74;102877.75;5053768;28;20082;-76
2023/03/01 04:56:13;;;;;;;7.82;3.60;;;;;;;-2.60;85.05;102872.59;5050368;28;20036;-76
2023/03/01 04:58:39;;;;;;;10.82;9.23;;;;;;;-2.75;85.66;102869.84;5052805;28;20032;-76
2023/03/01 05:01:15;;;;;;;21.95;10.02;;;;;;;-2.84;86.68;102867.97;5052371;28;20024;-76
2023/03/01 05:03:42;;;;;;;12.18;9.00;;;;;;;-2.86;86.91;102874.81;5052152;28;20032;-76
2023/03/01 05:06:08;;;;;;;13.18;9.45;;;;;;;-2.90;87.22;102876.50;5052619;28;20021;-76
2023/03/01 05:08:36;;;;;;;7.88;4.88;;;;;;;-2.81;86.68;102878.31;5050417;28;20128;-76
2023/03/01 05:11:02;;;;;;;6.68;3.72;;;;;;;-2.80;86.18;102874.03;5051113;28;20075;-75
2023/03/01 05:13:29;;;;;;;8.18;4.38;;;;;;;-2.79;86.28;102883.53;5052883;28;20448;-78
2023/03/01 05:15:59;;;;;;;12.30;9.65;;;;;;;-2.86;86.82;102883.41;5052326;28;20025;-75
2023/03/01 05:18:26;;;;;;;10.80;9.75;;;;;;;-2.88;87.24;102879.09;5052890;28;20083;-75
2023/03/01 05:20:56;;;;;;;8.07;4.95;;;;;;;-2.81;86.83;102878.31;5049817;28;20028;-75
2023/03/01 05:23:22;;;;;;;8.77;4.75;;;;;;;-2.79;86.60;102870.66;5051041;28;20067;-75
2023/03/01 05:25:48;;;;;;;8.23;4.63;;;;;;;-2.79;86.41;102866.34;5063017;28;20070;-75
2023/03/01 05:28:15;;;;;;;11.55;10.02;;;;;;;-2.89;86.69;102859.31;5049846;28;20032;-75
2023/03/01 05:30:41;;;;;;;12.27;9.55;;;;;;;-2.93;87.35;102849.84;5050098;28;20123;-74
2023/03/01 05:33:12;;;;;;;8.02;4.82;;;;;;;-2.86;86.62;102849.94;5059911;28;20021;-75
2023/03/01 05:35:40;;;;;;;6.68;4.10;;;;;;;-2.86;86.91;102847.34;5065486;28;20025;-75
2023/03/01 05:38:06;;;;;;;8.18;3.83;;;;;;;-2.85;86.51;102845.66;5050390;28;20025;-75
2023/03/01 05:40:33;;;;;;;11.20;9.80;;;;;;;-2.99;87.07;102845.47;5050413;28;20049;-75
2023/03/01 05:42:58;;;;;;;13.00;10.52;;;;;;;-3.03;87.55;102835.09;5039668;28;20065;-75
2023/03/01 05:45:25;;;;;;;14.02;10.13;;;;;;;-3.09;88.06;102835.88;5031086;28;20130;-75
2023/03/01 05:47:51;;;;;;;11.88;9.77;;;;;;;-3.12;87.85;102829.84;5044306;28;20028;-75
2023/03/01 05:50:28;;;;;;;11.35;10.25;;;;;;;-3.20;88.23;102840.88;5050044;28;20060;-75
2023/03/01 05:52:58;;;;;;;7.53;4.47;;;;;;;-3.06;87.86;102840.22;5047977;28;20031;-75
2023/03/01 05:55:24;;;;;;;9.13;4.50;;;;;;;-3.09;87.04;102838.47;5049418;28;20037;-75
2023/03/01 05:57:50;;;;;;;11.38;10.00;;;;;;;-3.25;88.37;102829.63;5046436;28;20036;-75
2023/03/01 06:00:18;;;;;;;17.08;10.38;;;;;;;-3.36;88.91;102840.63;5046460;28;20021;-75
2023/03/01 06:02:44;;;;;;;9.05;5.03;;;;;;;-3.21;88.11;102835.69;5050095;28;20033;-75
2023/03/01 06:05:11;;;;;;;14.65;10.60;;;;;;;-3.32;88.95;102838.09;5049883;28;20099;-75
2023/03/01 06:07:36;;;;;;;12.65;10.70;;;;;;;-3.36;89.54;102831.19;5050698;28;20040;-75
2023/03/01 06:10:03;;;;;;;14.70;12.30;;;;;;;-3.39;89.93;102835.41;5052123;28;20397;-75
2023/03/01 06:12:34;;;;;;;13.02;10.75;;;;;;;-3.42;90.32;102833.66;5051391;28;20107;-75
2023/03/01 06:15:00;;;;;;;15.75;11.52;;;;;;;-3.41;89.92;102837.09;5050959;28;20495;-75
2023/03/01 06:17:26;;;;;;;14.52;5.57;;;;;;;-3.32;89.58;102830.38;5037218;28;20026;-75
2023/03/01 06:19:51;;;;;;;10.13;5.07;;;;;;;-3.30;89.18;102833.84;5031152;28;20062;-75
2023/03/01 06:22:17;;;;;;;13.02;6.28;;;;;;;-3.30;88.96;102826.13;5047543;28;20031;-75
2023/03/01 06:24:42;;;;;;;11.60;4.82;;;;;;;-3.30;88.35;102831.28;5052338;28;20405;-75
2023/03/01 06:27:08;;;;;;;9.25;5.05;;;;;;;-3.31;88.90;102834.69;5051047;28;20385;-78
2023/03/01 06:29:33;;;;;;;9.38;4.95;;;;;;;-3.30;88.69;102833.84;5051179;28;20469;-75
2023/03/01 06:31:58;;;;;;;14.07;10.93;;;;;;;-3.40;89.61;102837.13;5049094;28;20039;-75
2023/03/01 06:34:24;;;;;;;12.65;5.38;;;;;;;-3.30;89.64;102836.41;5083472;28;20118;-75
2023/03/01 06:36:49;;;;;;;13.13;11.57;;;;;;;-3.36;90.03;102835.47;5054946;28;20033;-75
2023/03/01 06:39:16;;;;;;;14.93;11.35;;;;;;;-3.44;90.42;102837.94;5047983;28;20022;-75
2023/03/01 06:41:41;;;;;;;10.88;5.13;;;;;;;-3.30;90.14;102839.00;5054070;28;20510;-75
2023/03/01 06:44:07;;;;;;;9.15;5.10;;;;;;;-3.26;89.87;102843.34;5049636;28;20029;-75
2023/03/01 06:46:32;;;;;;;14.45;5.07;;;;;;;-3.21;89.14;102848.56;5049057;28;20466;-77
2023/03/01 06:48:58;;;;;;;8.60;4.85;;;;;;;-3.19;89.52;102850.34;5065213;28;20115;-75
2023/03/01 06:51:23;;;;;;;14.70;11.68;;;;;;;-3.21;90.10;102836.56;5041333;28;20033;-75
2023/03/01 06:53:48;;;;;;;8.82;4.68;;;;;;;-3.13;89.56;102843.53;5046411;28;20036;-75
2023/03/01 06:56:14;;;;;;;6.60;4.45;;;;;;;-3.09;89.50;102843.63;5029435;28;20071;-75
2023/03/01 06:58:39;;;;;;;12.77;5.05;;;;;;;-3.06;89.20;102846.22;5055901;28;20082;-75
2023/03/01 07:01:08;;;;;;;11.77;4.97;;;;;;;-3.01;88.85;102841.13;5037544;28;20016;-78
2023/03/01 07:03:33;;;;;;;9.32;4.63;;;;;;;-2.98;89.03;102839.47;5049410;28;20041;-75
2023/03/01 07:05:59;;;;;;;12.93;5.18;;;;;;;-2.94;89.00;102835.22;5048480;28;20079;-74
2023/03/01 07:08:24;;;;;;;13.07;4.70;;;;;;;-2.89;88.69;102841.31;5058422;28;20044;-74
2023/03/01 07:10:55;;;;;;;9.55;4.95;;;;;;;-2.85;88.65;102835.34;5049436;28;20456;-75
2023/03/01 07:13:21;;;;;;;11.38;5.43;;;;;;;-2.83;88.73;102829.38;5048737;28;20020;-75
2023/03/01 07:15:46;;;;;;;13.05;11.65;;;;;;;-2.81;89.53;102831.09;5043936;28;20386;-74
2023/03/01 07:18:11;;;;;;;16.90;12.20;;;;;;;-2.75;89.06;102833.78;5045890;28;20465;-74
2023/03/01 07:20:37;;;;;;;16.98;12.40;;;;;;;-2.68;89.18;102844.19;5038208;28;20032;-77
2023/03/01 07:23:02;;;;;;;10.52;5.68;;;;;;;-2.61;88.69;102839.97;5058883;28;20029;-77
2023/03/01 07:25:27;;;;;;;7.70;4.93;;;;;;;-2.52;88.92;102850.38;5068344;28;20016;-76
2023/03/01 07:27:53;;;;;;;17.67;12.90;;;;;;;-2.44;88.25;102847.88;5070233;28;20017;-76
2023/03/01 07:30:20;;;;;;;15.07;11.55;;;;;;;-2.29;87.62;102848.09;5069297;28;20504;-76
2023/03/01 07:32:45;;;;;;;10.20;5.18;;;;;;;-2.23;87.14;102849.00;5074841;28;20036;-76
2023/03/01 07:35:11;;;;;;;12.82;11.48;;;;;;;-2.05;86.38;102842.31;5069699;28;20189;-75
2023/03/01 07:37:36;;;;;;;11.32;5.57;;;;;;;-1.96;86.42;102852.75;5064270;28;20032;-78
2023/03/01 07:40:02;;;;;;;11.20;4.57;;;;;;;-1.85;85.89;102851.13;5057101;28;20028;-74
2023/03/01 07:42:28;;;;;;;15.23;11.70;;;;;;;-1.68;84.95;102843.53;5048859;28;20504;-75
2023/03/01 07:44:53;;;;;;;8.52;5.03;;;;;;;-1.61;84.74;102850.47;5046204;28;20162;-76
2023/03/01 07:47:18;;;;;;;14.48;11.75;;;;;;;-1.47;83.92;102848.03;5058134;28;20031;-75
2023/03/01 07:49:44;;;;;;;16.02;11.52;;;;;;;-1.38;83.48;102854.09;5063987;28;20021;-75
2023/03/01 07:52:11;;;;;;;12.02;10.73;;;;;;;-1.24;82.60;102851.63;5057934;28;20021;-74
2023/03/01 07:54:37;;;;;;;14.52;10.90;;;;;;;-1.15;82.33;102846.53;5058705;28;20028;-75
2023/03/01 07:57:02;;;;;;;9.40;5.07;;;;;;;-1.05;82.67;102850.03;5054001;28;20486;-74
2023/03/01 07:59:29;;;;;;;13.13;10.85;;;;;;;-0.94;81.16;102845.78;5061408;28;20021;-75
2023/03/01 08:01:56;;;;;;;13.52;10.60;;;;;;;-0.83;80.67;102838.97;5055232;28;20056;-74
2023/03/01 08:04:23;;;;;;;12.60;10.55;;;;;;;-0.72;80.38;102834.72;5068556;28;20089;-74
2023/03/01 08:06:48;;;;;;;13.60;5.55;;;;;;;-0.64;81.09;102845.97;5057868;28;20396;-75
2023/03/01 08:09:13;;;;;;;13.38;10.27;;;;;;;-0.53;78.89;102847.72;5079435;28;20044;-78
2023/03/01 08:11:38;;;;;;;13.60;10.98;;;;;;;-0.43;79.21;102841.72;5047947;28;20083;-75
2023/03/01 08:14:04;;;;;;;13.82;10.35;;;;;;;-0.33;78.57;102843.50;5049634;28;20053;-78
2023/03/01 08:16:29;;;;;;;14.65;10.55;;;;;;;-0.23;78.40;102844.38;5049448;28;20036;-78
2023/03/01 08:18:56;;;;;;;13.95;11.20;;;;;;;-0.06;78.10;102845.28;5046931;28;20424;-75
2023/03/01 08:21:22;;;;;;;20.15;16.42;;;;;;;0.05;76.75;102845.31;5046259;28;20025;-76
2023/03/01 08:23:47;;;;;;;20.73;13.38;;;;;;;0.13;76.21;102841.03;5063328;28;20051;-75
2023/03/01 08:26:18;;;;;;;15.48;11.82;;;;;;;0.21;76.53;102844.47;5059753;28;20016;-74
2023/03/01 08:28:45;;;;;;;12.10;10.80;;;;;;;0.30;76.12;102849.66;5060360;28;20021;-75
2023/03/01 08:31:38;;;;;;;12.77;10.50;;;;;;;0.40;76.58;102830.69;5064395;28;20470;-75
2023/03/01 08:34:07;;;;;;;12.70;10.15;;;;;;;0.48;74.97;102839.31;5051733;28;20066;-75
2023/03/01 08:36:36;;;;;;;12.43;10.40;;;;;;;0.54;74.68;102838.44;5052838;28;20436;-75
2023/03/01 08:39:02;;;;;;;13.05;10.38;;;;;;;0.63;74.33;102834.13;5032462;28;20477;-78
2023/03/01 08:41:28;;;;;;;12.38;10.45;;;;;;;0.71;73.61;102836.69;5044661;28;20013;-75
2023/03/01 08:43:58;;;;;;;10.85;9.75;;;;;;;0.77;73.45;102835.81;5069093;28;20056;-75
2023/03/01 08:46:27;;;;;;;12.70;9.43;;;;;;;0.89;73.17;102828.06;5057185;28;20027;-75
2023/03/01 08:48:53;;;;;;;11.90;9.75;;;;;;;0.98;72.30;102820.25;5062057;28;20020;-75
2023/03/01 08:51:20;;;;;;;13.13;10.40;;;;;;;1.12;72.71;102815.88;5051588;28;20131;-74
2023/03/01 08:53:45;;;;;;;13.73;10.50;;;;;;;1.27;72.19;102808.94;5068805;28;20102;-75
2023/03/01 08:56:11;;;;;;;14.80;10.48;;;;;;;1.35;71.37;102802.00;5050329;28;20037;-76
2023/03/01 08:58:39;;;;;;;13.68;10.00;;;;;;;1.48;71.16;102809.69;5058538;28;20132;-76
2023/03/01 09:01:09;;;;;;;11.55;8.82;;;;;;;1.59;70.45;102820.00;5044988;28;20091;-75
2023/03/01 09:03:34;;;;;;;10.63;9.52;;;;;;;1.68;69.57;102814.81;5068406;28;20067;-77
2023/03/01 09:06:01;;;;;;;11.40;8.93;;;;;;;1.76;68.95;102817.34;5060055;28;20100;-75
2023/03/01 09:08:26;;;;;;;10.63;9.27;;;;;;;1.89;69.64;102806.88;5067180;28;20013;-74
2023/03/01 09:10:52;;;;;;;10.65;9.02;;;;;;;2.01;68.13;102803.34;5045206;28;20055;-75
2023/03/01 09:13:17;;;;;;;10.95;9.10;;;;;;;2.18;68.12;102800.63;5057485;28;20481;-75
2023/03/01 09:15:42;;;;;;;11.40;9.50;;;;;;;2.26;68.08;102798.81;5068303;28;20038;-75
2023/03/01 09:18:08;;;;;;;19.63;15.30;;;;;;;2.39;67.77;102803.03;5058883;28;20435;-75
2023/03/01 09:20:33;;;;;;;12.82;9.35;;;;;;;2.50;66.23;102797.75;5050621;28;20043;-75
2023/03/01 09:22:59;;;;;;;12.95;9.80;;;;;;;2.67;66.48;102782.00;5062310;28;20029;-76
2023/03/01 09:25:24;;;;;;;12.15;9.23;;;;;;;2.76;65.16;102779.31;5057118;28;20025;-75
2023/03/01 09:27:54;;;;;;;12.18;8.85;;;;;;;2.80;64.98;102791.38;5045288;28;20083;-75
2023/03/01 09:30:20;;;;;;;10.77;8.52;;;;;;;2.84;64.32;102782.72;5048254;28;20068;-75
2023/03/01 09:32:46;;;;;;;11.18;8.55;;;;;;;2.88;63.71;102778.34;5051580;28;20029;-76
2023/03/01 09:35:12;;;;;;;10.25;7.82;;;;;;;2.99;62.76;102779.94;5051457;28;20036;-76
2023/03/01 09:37:38;;;;;;;11.20;8.75;;;;;;;3.08;63.45;102768.56;5060628;28;20393;-75
2023/03/01 09:40:15;;;;;;;9.38;7.95;;;;;;;3.13;62.71;102771.94;5072254;28;20044;-76
2023/03/01 09:42:54;;;;;;;12.57;8.30;;;;;;;3.11;61.68;102774.56;5069994;28;20036;-76
2023/03/01 09:45:33;;;;;;;11.73;8.20;;;;;;;3.18;62.08;102771.88;5057057;28;20020;-76
2023/03/01 09:48:00;;;;;;;9.60;8.18;;;;;;;3.20;61.40;102764.94;5059478;28;20031;-76
2023/03/01 09:50:31;;;;;;;10.25;8.20;;;;;;;3.24;61.42;102769.25;5064134;28;20029;-74
2023/03/01 09:53:14;;;;;;;11.98;8.52;;;;;;;3.28;61.23;102769.19;5066478;28;20028;-75
2023/03/01 09:55:56;;;;;;;9.88;8.60;;;;;;;3.39;61.47;102766.44;5062968;28;20028;-78
2023/03/01 09:58:47;;;;;;;11.87;8.60;;;;;;;3.52;61.99;102756.72;5063289;28;20082;-75
2023/03/01 10:01:23;;;;;;;10.52;7.78;;;;;;;3.57;59.88;102753.16;5044604;28;20056;-75
2023/03/01 10:04:04;;;;;;;10.95;8.13;;;;;;;3.60;59.27;102744.44;5062369;28;20135;-75
2023/03/01 10:06:30;;;;;;;10.27;7.95;;;;;;;3.62;58.04;102742.72;5068095;28;20051;-78
2023/03/01 10:09:03;;;;;;;9.25;7.78;;;;;;;3.78;59.15;102733.78;5047527;28;20160;-75
2023/03/01 10:11:35;;;;;;;10.25;7.68;;;;;;;3.85;59.10;102734.53;5058257;28;20054;-75
2023/03/01 10:14:27;;;;;;;10.30;8.23;;;;;;;3.97;58.70;102727.38;5069735;28;20114;-75
2023/03/01 10:17:02;;;;;;;9.65;7.28;;;;;;;3.93;57.13;102727.47;5069893;28;20059;-75
2023/03/01 10:19:32;;;;;;;12.48;7.57;;;;;;;3.90;55.96;102715.34;5058723;28;20087;-75
2023/03/01 10:22:05;;;;;;;9.13;7.13;;;;;;;3.88;55.73;102718.88;5059927;28;20024;-75
2023/03/01 10:24:33;;;;;;;;;;;;;;;4.26;56.03;102713.88;5067604;28;20032;-75
2023/03/01 10:27:07;;;;;;;11.20;7.78;;;;;;;4.43;54.85;102705.75;5069117;28;19908;-75
2023/03/01 10:29:56;;;;;;;9.88;7.68;;;;;;;4.37;55.12;102714.53;5061439;28;20090;-75
2023/03/01 10:32:21;;;;;;;10.35;7.72;;;;;;;4.28;55.66;102711.25;5048941;28;20457;-75
2023/03/01 10:34:47;;;;;;;9.82;7.68;;;;;;;4.27;54.98;102710.38;5064199;28;20055;-79
2023/03/01 10:37:18;;;;;;;8.70;7.47;;;;;;;5.01;53.42;102695.03;5060894;28;20035;-75
2023/03/01 10:40:08;;;;;;;9.27;7.30;;;;;;;5.82;53.31;102702.78;5065968;28;20472;-75
2023/03/01 10:42:47;;;;;;;11.48;7.38;;;;;;;6.15;51.38;102696.75;5059531;28;20036;-75
2023/03/01 10:45:15;;;;;;;14.25;7.55;;;;;;;6.24;50.34;102696.50;5062238;28;20032;-76
2023/03/01 10:47:41;;;;;;;18.15;8.07;;;;;;;6.28;50.01;102692.03;5057446;28;20354;-76
2023/03/01 10:50:19;;;;;;;50.83;9.88;;;;;;;6.14;51.57;102695.03;5071091;28;20393;-75
2023/03/01 10:52:58;;;;;;;17.42;8.25;;;;;;;6.03;52.08;102694.47;5070001;28;20026;-79
2023/03/01 10:55:31;;;;;;;8.95;7.70;;;;;;;5.83;51.00;102694.91;5059879;28;20500;-75
2023/03/01 10:58:08;;;;;;;9.27;7.53;;;;;;;5.70;51.70;102687.41;5071092;28;20028;-76
2023/03/01 11:00:46;;;;;;;9.23;7.97;;;;;;;5.43;52.04;102689.75;5050862;28;20779;-75
2023/03/01 11:03:16;;;;;;;8.52;7.63;;;;;;;5.21;52.12;102689.41;5050282;28;20072;-76
2023/03/01 11:06:03;;;;;;;11.70;8.00;;;;;;;5.33;52.75;102688.25;5073622;28;20044;-75
2023/03/01 11:08:37;;;;;;;8.65;7.18;;;;;;;5.20;50.43;102694.63;5069876;28;20370;-75
2023/03/01 11:11:11;;;;;;;10.73;8.00;;;;;;;5.12;50.25;102684.34;5070369;28;20089;-75
2023/03/01 11:13:49;;;;;;;11.50;7.95;;;;;;;4.87;50.35;102689.25;5050290;28;20036;-75
2023/03/01 11:16:17;;;;;;;8.82;7.78;;;;;;;4.97;51.15;102687.31;5061483;28;20056;-75
2023/03/01 11:18:42;;;;;;;12.00;7.88;;;;;;;4.90;50.77;102694.41;5046596;28;20044;-75
2023/03/01 11:21:09;;;;;;;10.93;8.07;;;;;;;4.92;51.03;102687.41;5051168;28;20634;-75
2023/03/01 11:23:38;;;;;;;17.73;11.80;;;;;;;4.88;50.99;102685.75;5069958;28;20384;-75
2023/03/01 11:26:08;;;;;;;9.50;8.40;;;;;;;4.97;51.29;102690.78;5069701;28;20024;-75
2023/03/01 11:28:37;;;;;;;10.18;8.38;;;;;;;5.17;51.97;102686.88;5069527;28;20036;-73